createdAt,value
2019-01-23T00:00:45.181Z,39.20
2019-01-23T00:07:29.400Z,38.63
2019-01-23T00:14:13.581Z,46.03
2019-01-23T00:20:57.773Z,38.07
2019-01-23T00:27:42.106Z,44.50
2019-01-23T00:34:26.325Z,36.57
2019-01-23T00:41:10.514Z,37.27
2019-01-23T00:47:54.916Z,39.97
2019-01-23T00:54:39.198Z,36.70
2019-01-23T01:01:23.506Z,41.50
2019-01-23T01:08:07.747Z,36.73
2019-01-23T01:14:52.039Z,38.57
2019-01-23T01:21:36.240Z,37.37
2019-01-23T01:28:23.474Z,36.73
2019-01-23T01:35:07.751Z,40.23
2019-01-23T01:41:52.082Z,39.00
2019-01-23T01:48:36.274Z,36.37
2019-01-23T01:55:20.476Z,37.63
2019-01-23T02:02:07.534Z,37.00
2019-01-23T02:08:51.842Z,35.90
2019-01-23T02:15:36.054Z,37.57
2019-01-23T02:22:21.489Z,36.93
2019-01-23T02:29:13.154Z,41.03
2019-01-23T02:35:57.334Z,39.70
2019-01-23T02:42:41.522Z,37.50
2019-01-23T02:49:25.743Z,41.13
2019-01-23T03:03:37.229Z,41.97
2019-01-23T03:10:22.547Z,37.50
2019-01-23T03:17:06.819Z,46.57
2019-01-23T03:23:51.025Z,44.17
2019-01-23T03:30:35.212Z,43.73
2019-01-23T03:37:19.389Z,43.37
2019-01-23T03:44:04.051Z,45.37
2019-01-23T03:50:48.287Z,49.73
2019-01-23T03:57:32.477Z,48.13
2019-01-23T04:04:16.757Z,54.07
2019-01-23T04:11:00.930Z,47.30
2019-01-23T04:17:45.131Z,53.70
2019-01-23T04:24:29.332Z,48.50
2019-01-23T04:31:13.539Z,49.17
2019-01-23T04:37:57.726Z,51.30
2019-01-23T04:44:41.915Z,48.37
2019-01-23T04:51:37.223Z,57.77
2019-01-23T04:58:21.727Z,48.07
2019-01-23T05:05:06.814Z,53.00
2019-01-23T05:11:51.011Z,53.80
2019-01-23T05:18:36.202Z,57.83
2019-01-23T05:25:21.928Z,51.57
2019-01-23T05:32:08.700Z,48.47
2019-01-23T05:38:52.882Z,55.00
2019-01-23T05:45:37.092Z,50.67
2019-01-23T05:52:21.361Z,57.07
2019-01-23T05:59:05.569Z,55.87
2019-01-23T06:05:49.830Z,51.47
2019-01-23T06:12:34.086Z,52.07
2019-01-23T06:19:18.272Z,54.63
2019-01-23T06:26:02.554Z,55.97
2019-01-23T06:32:52.116Z,53.33
2019-01-23T06:39:36.294Z,51.97
2019-01-23T06:46:20.577Z,56.47
2019-01-23T06:53:04.802Z,57.47
2019-01-23T06:59:49.022Z,57.67
2019-01-23T07:06:33.365Z,50.30
2019-01-23T07:13:18.366Z,56.80
2019-01-23T07:20:02.557Z,53.83
2019-01-23T07:26:46.785Z,61.90
2019-01-23T07:33:31.005Z,62.33
2019-01-23T07:40:15.186Z,53.43
2019-01-23T07:46:59.382Z,63.00
2019-01-23T07:53:43.567Z,56.63
2019-01-23T08:00:31.473Z,60.87
2019-01-23T08:07:12.125Z,52.23
2019-01-23T08:13:56.378Z,57.57
2019-01-23T08:20:40.526Z,51.07
2019-01-23T08:27:24.922Z,51.50
2019-01-23T08:34:09.113Z,46.77
2019-01-23T08:40:53.310Z,47.77
2019-01-23T08:47:37.743Z,47.07
2019-01-23T08:54:21.934Z,53.03
2019-01-23T09:01:06.502Z,39.23
2019-01-23T09:07:50.681Z,43.27
2019-01-23T09:14:34.893Z,45.30
2019-01-23T09:21:19.114Z,42.63
2019-01-23T09:28:03.310Z,45.50
2019-01-23T09:35:03.127Z,42.00
2019-01-23T09:42:13.821Z,45.37
2019-01-23T09:49:13.548Z,43.80
2019-01-23T09:55:58.080Z,42.87
2019-01-23T10:02:42.302Z,47.13
2019-01-23T10:09:26.530Z,41.17
2019-01-23T10:16:19.579Z,49.37
2019-01-23T10:23:03.779Z,46.07
2019-01-23T10:29:47.978Z,42.70
2019-01-23T10:36:32.246Z,42.53
2019-01-23T10:43:16.684Z,50.73
2019-01-23T10:50:00.969Z,42.70
2019-01-23T10:56:45.161Z,46.47
2019-01-23T11:03:29.359Z,51.70
2019-01-23T11:10:15.894Z,45.37
2019-01-23T11:17:00.110Z,42.63
2019-01-23T11:23:44.312Z,47.40
2019-01-23T11:30:28.542Z,51.97
2019-01-23T11:37:12.782Z,51.43
2019-01-23T11:43:56.978Z,52.07
2019-01-23T11:50:52.552Z,53.57
2019-01-23T11:57:38.996Z,51.10
2019-01-23T12:04:31.193Z,44.97
2019-01-23T12:26:23.122Z,51.87
2019-01-23T12:33:14.617Z,31.60
2019-01-23T12:39:58.833Z,44.97
2019-01-23T12:46:43.047Z,52.57
2019-01-23T12:53:27.233Z,38.27
2019-01-23T13:00:17.801Z,41.97
2019-01-23T13:07:01.991Z,48.97
2019-01-23T13:13:46.202Z,54.53
2019-01-23T13:20:30.398Z,48.50
2019-01-23T13:27:14.577Z,44.33
2019-01-23T13:33:58.770Z,51.50
2019-01-23T13:40:42.972Z,49.90
2019-01-23T13:47:27.153Z,49.87
2019-01-23T13:54:11.381Z,51.07
2019-01-23T14:00:55.561Z,22.90
2019-01-23T14:07:39.755Z,39.13
2019-01-23T14:14:24.172Z,39.80
2019-01-23T14:21:08.546Z,43.60
2019-01-23T14:27:52.739Z,48.93
2019-01-23T14:34:36.926Z,46.40
2019-01-23T14:41:21.204Z,54.77
2019-01-23T14:48:05.902Z,46.80
2019-01-23T14:54:50.121Z,48.37
2019-01-23T15:01:34.314Z,42.40
2019-01-23T15:08:18.491Z,46.07
2019-01-23T15:15:02.687Z,47.63
2019-01-23T15:21:46.873Z,41.37
2019-01-23T15:28:31.070Z,46.00
2019-01-23T15:35:15.386Z,43.43
2019-01-23T15:41:59.599Z,47.03
2019-01-23T15:48:45.177Z,43.20
2019-01-23T15:55:31.565Z,45.27
2019-01-23T16:02:15.738Z,47.13
2019-01-23T16:08:59.934Z,47.50
2019-01-23T16:15:44.135Z,57.43
2019-01-23T16:22:28.839Z,56.27
2019-01-23T16:29:13.839Z,49.23
2019-01-23T16:35:57.262Z,50.70
2019-01-23T16:42:42.834Z,60.50
2019-01-23T16:49:36.621Z,53.30
2019-01-23T16:56:20.881Z,54.20
2019-01-23T17:03:11.183Z,59.07
2019-01-23T17:09:56.151Z,62.07
2019-01-23T17:16:40.405Z,67.07
2019-01-23T17:23:24.632Z,70.10
2019-01-23T17:30:10.054Z,66.57
2019-01-23T17:36:54.239Z,60.37
2019-01-23T17:43:38.973Z,61.37
2019-01-23T17:50:23.245Z,79.13
2019-01-23T17:57:07.450Z,77.47
2019-01-23T18:03:51.752Z,71.00
2019-01-23T18:10:36.174Z,78.13
2019-01-23T18:17:20.362Z,67.80
2019-01-23T18:24:04.765Z,65.60
2019-01-23T18:30:56.097Z,59.23
2019-01-23T18:37:52.058Z,64.93
2019-01-23T18:44:50.302Z,50.27
2019-01-23T18:51:41.918Z,60.57
2019-01-23T18:58:26.109Z,62.00
2019-01-23T19:05:10.362Z,61.60
2019-01-23T19:11:54.634Z,60.80
2019-01-23T19:18:38.958Z,48.73
2019-01-23T19:25:23.432Z,65.73
2019-01-23T19:32:08.245Z,68.07
2019-01-23T19:38:52.849Z,65.30
2019-01-23T19:45:37.038Z,64.53
2019-01-23T19:52:21.225Z,66.73
2019-01-23T19:59:07.470Z,76.90
2019-01-23T20:05:52.633Z,65.57
2019-01-23T20:12:37.616Z,60.67
2019-01-23T20:19:25.229Z,64.47
2019-01-23T20:26:10.215Z,51.70
2019-01-23T20:32:55.049Z,63.27
2019-01-23T20:39:39.234Z,63.20
2019-01-23T20:46:23.442Z,74.57
2019-01-23T20:53:07.662Z,77.90
2019-01-23T20:59:51.887Z,76.70
2019-01-23T21:06:36.079Z,71.47
2019-01-23T21:13:20.325Z,81.08
2019-01-23T21:20:04.593Z,70.13
2019-01-23T21:26:48.937Z,83.00
2019-01-23T21:33:33.176Z,66.93
2019-01-23T21:40:19.582Z,76.07
2019-01-23T21:47:04.455Z,73.43
2019-01-23T21:53:48.662Z,83.00
2019-01-23T22:00:36.562Z,78.27
2019-01-23T22:07:21.782Z,83.60
2019-01-23T22:14:07.382Z,93.63
2019-01-23T22:20:52.086Z,79.47
2019-01-23T22:27:36.296Z,84.40
2019-01-23T22:34:20.673Z,83.40
2019-01-23T22:41:05.288Z,75.47
2019-01-23T22:47:49.478Z,73.43
2019-01-23T22:54:35.452Z,78.67
2019-01-23T23:01:27.105Z,77.03
2019-01-23T23:08:11.645Z,75.53
2019-01-23T23:14:57.670Z,84.83
2019-01-23T23:21:42.415Z,86.23
2019-01-23T23:28:26.695Z,90.17
2019-01-23T23:35:11.354Z,81.83
2019-01-23T23:41:56.225Z,93.77
2019-01-23T23:48:41.189Z,83.53
2019-01-23T23:55:25.967Z,67.00
